Sampatiki — D5DJ8 — position and weather

sailwx.info

Track history (hours):
 
Tides and Currents Weather Stations Pressure Air Temp Water Temp Dewpoint Dewpoint Depression Visibility Wind Speed Wind Dir Waves Ship Positions

Sampatiki

Last reported at 2018-Apr-24 23:01 UTC. Time now 2018-Apr-24 23:03 UTC.
Position N 37°57' E 023°35'.

Length 100 m; draft 6.5 m.

Type: Ship (hazmat cat A). MMSI: 636015901.

Date/timePositionNaut miles runAvg speedWind from/ knotsBaromVisibWave heightAir tempDewpointWater temp
2018-Apr-24 23:01N 37°57' E 023°35'0 0.0
2018-Apr-24 22:31N 37°57' E 023°35'0 0.0
2018-Apr-24 22:01N 37°57' E 023°35'0 0.0
2018-Apr-24 21:31N 37°57' E 023°35'0 0.0
2018-Apr-24 21:01N 37°57' E 023°35'0 0.0
2018-Apr-24 20:31N 37°57' E 023°35'0 0.0
2018-Apr-24 20:01N 37°57' E 023°35'0 0.0
2018-Apr-24 19:31N 37°57' E 023°35'0 0.0
2018-Apr-24 19:01N 37°57' E 023°35'0 0.0
2018-Apr-24 18:31N 37°57' E 023°35'0 0.0
2018-Apr-24 18:01N 37°57' E 023°35'0 0.0
2018-Apr-24 17:31N 37°57' E 023°35'0 0.0
2018-Apr-24 17:01N 37°57' E 023°35'0 0.0
2018-Apr-24 16:31N 37°57' E 023°35'0 0.0
2018-Apr-24 16:01N 37°57' E 023°35'0 0.0
2018-Apr-24 15:31N 37°57' E 023°35'0 0.0
2018-Apr-24 15:01N 37°57' E 023°35'0 0.0
2018-Apr-24 14:31N 37°57' E 023°35'0 0.0
2018-Apr-24 14:01N 37°57' E 023°35'0 0.0
2018-Apr-24 13:30N 37°57' E 023°35'0 0.0
2018-Apr-24 13:01N 37°57' E 023°35'0 0.0
2018-Apr-24 12:31N 37°57' E 023°35'0 0.0
2018-Apr-24 11:57N 37°57' E 023°35'0 0.0
2018-Apr-24 11:31N 37°57' E 023°35'0 0.0
2018-Apr-24 11:01N 37°57' E 023°35'0 0.0
2018-Apr-24 10:30N 37°57' E 023°35'0 0.0
2018-Apr-24 10:01N 37°57' E 023°35'0 0.0
2018-Apr-24 09:30N 37°57' E 023°35'0 0.0
2018-Apr-24 08:57N 37°57' E 023°35'0 0.0
2018-Apr-24 08:30N 37°57' E 023°35'0 0.0
2018-Apr-24 07:57N 37°57' E 023°35'0 0.0
2018-Apr-24 07:30N 37°57' E 023°35'0 0.0
2018-Apr-24 07:00N 37°57' E 023°35'0 0.0
2018-Apr-24 06:30N 37°57' E 023°35'0 0.0
2018-Apr-24 05:57N 37°57' E 023°35'0 0.0
2018-Apr-24 05:31N 37°57' E 023°35'0 0.0
2018-Apr-24 05:01N 37°57' E 023°35'1 2.0
2018-Apr-24 04:31N 37°57' E 023°36'2 3.7
2018-Apr-24 04:01N 37°55' E 023°36'2 4.6
2018-Apr-24 03:31N 37°53' E 023°37'4 8.8
2018-Apr-24 03:00N 37°49' E 023°40'4 9.0
2018-Apr-24 02:31N 37°45' E 023°42'5 9.6
2018-Apr-24 02:01N 37°40' E 023°44'6 9.0
2018-Apr-24 01:22N 37°38' E 023°51'169 9.1
2018-Apr-23 06:42N 39°53' E 026°01'3 0.5
2018-Apr-23 00:47N 39°53' E 025°57'3 8.7
2018-Apr-23 00:23N 39°51' E 025°54'4 9.6
2018-Apr-22 23:59N 39°55' E 025°53'  
Track history (hours):
 
Tides and Currents Weather Stations Pressure Air Temp Water Temp Dewpoint Dewpoint Depression Visibility Wind Speed Wind Dir Waves Ship Positions

Sampatiki

Last reported at 2018-Apr-24 23:01 UTC. Time now 2018-Apr-24 23:03 UTC.
Position N 37°57' E 023°35'.

Length 100 m; draft 6.5 m.

Type: Ship (hazmat cat A). MMSI: 636015901.

Date/timePositionNaut miles runAvg speedWind from/ knotsBaromVisibWave heightAir tempDewpointWater temp
2018-Apr-24 23:01N 37°57' E 023°35'0 0.0
2018-Apr-24 22:31N 37°57' E 023°35'0 0.0
2018-Apr-24 22:01N 37°57' E 023°35'0 0.0
2018-Apr-24 21:31N 37°57' E 023°35'0 0.0
2018-Apr-24 21:01N 37°57' E 023°35'0 0.0
2018-Apr-24 20:31N 37°57' E 023°35'0 0.0
2018-Apr-24 20:01N 37°57' E 023°35'0 0.0
2018-Apr-24 19:31N 37°57' E 023°35'0 0.0
2018-Apr-24 19:01N 37°57' E 023°35'0 0.0
2018-Apr-24 18:31N 37°57' E 023°35'0 0.0
2018-Apr-24 18:01N 37°57' E 023°35'0 0.0
2018-Apr-24 17:31N 37°57' E 023°35'0 0.0
2018-Apr-24 17:01N 37°57' E 023°35'0 0.0
2018-Apr-24 16:31N 37°57' E 023°35'0 0.0
2018-Apr-24 16:01N 37°57' E 023°35'0 0.0
2018-Apr-24 15:31N 37°57' E 023°35'0 0.0
2018-Apr-24 15:01N 37°57' E 023°35'0 0.0
2018-Apr-24 14:31N 37°57' E 023°35'0 0.0
2018-Apr-24 14:01N 37°57' E 023°35'0 0.0
2018-Apr-24 13:30N 37°57' E 023°35'0 0.0
2018-Apr-24 13:01N 37°57' E 023°35'0 0.0
2018-Apr-24 12:31N 37°57' E 023°35'0 0.0
2018-Apr-24 11:57N 37°57' E 023°35'0 0.0
2018-Apr-24 11:31N 37°57' E 023°35'0 0.0
2018-Apr-24 11:01N 37°57' E 023°35'0 0.0
2018-Apr-24 10:30N 37°57' E 023°35'0 0.0
2018-Apr-24 10:01N 37°57' E 023°35'0 0.0
2018-Apr-24 09:30N 37°57' E 023°35'0 0.0
2018-Apr-24 08:57N 37°57' E 023°35'0 0.0
2018-Apr-24 08:30N 37°57' E 023°35'0 0.0
2018-Apr-24 07:57N 37°57' E 023°35'0 0.0
2018-Apr-24 07:30N 37°57' E 023°35'0 0.0
2018-Apr-24 07:00N 37°57' E 023°35'0 0.0
2018-Apr-24 06:30N 37°57' E 023°35'0 0.0
2018-Apr-24 05:57N 37°57' E 023°35'0 0.0
2018-Apr-24 05:31N 37°57' E 023°35'0 0.0
2018-Apr-24 05:01N 37°57' E 023°35'1 2.0
2018-Apr-24 04:31N 37°57' E 023°36'2 3.7
2018-Apr-24 04:01N 37°55' E 023°36'2 4.6
2018-Apr-24 03:31N 37°53' E 023°37'4 8.8
2018-Apr-24 03:00N 37°49' E 023°40'4 9.0
2018-Apr-24 02:31N 37°45' E 023°42'5 9.6
2018-Apr-24 02:01N 37°40' E 023°44'6 9.0
2018-Apr-24 01:22N 37°38' E 023°51'169 9.1
2018-Apr-23 06:42N 39°53' E 026°01'3 0.5
2018-Apr-23 00:47N 39°53' E 025°57'3 8.7
2018-Apr-23 00:23N 39°51' E 025°54'4 9.6
2018-Apr-22 23:59N 39°55' E 025°53'  

Dump ship's entire track history